sensor_id;sensor_type;location;lat;lon;timestamp;pressure;altitude;pressure_sealevel;temperature;humidity
56198;BME280;42700;42.524;12.052;2022-09-02T00:00:44;96620.41;;;19.15;100.00
56198;BME280;42700;42.524;12.052;2022-09-02T00:03:10;96634.66;;;19.15;100.00
56198;BME280;42700;42.524;12.052;2022-09-02T00:05:36;96645.72;;;19.19;100.00
56198;BME280;42700;42.524;12.052;2022-09-02T00:08:02;96665.09;;;19.21;100.00
56198;BME280;42700;42.524;12.052;2022-09-02T00:10:28;96654.91;;;19.23;100.00
56198;BME280;42700;42.524;12.052;2022-09-02T00:12:54;96675.63;;;19.28;100.00
56198;BME280;42700;42.524;12.052;2022-09-02T00:15:19;96683.50;;;19.34;100.00
56198;BME280;42700;42.524;12.052;2022-09-02T00:17:45;96656.81;;;19.28;100.00
56198;BME280;42700;42.524;12.052;2022-09-02T00:20:10;96631.75;;;19.22;100.00
56198;BME280;42700;42.524;12.052;2022-09-02T00:22:36;96666.22;;;19.25;100.00
56198;BME280;42700;42.524;12.052;2022-09-02T00:25:02;96611.16;;;19.06;100.00
56198;BME280;42700;42.524;12.052;2022-09-02T00:27:28;96644.00;;;19.08;100.00
56198;BME280;42700;42.524;12.052;2022-09-02T00:29:53;96684.97;;;19.15;100.00
56198;BME280;42700;42.524;12.052;2022-09-02T00:32:19;96682.84;;;19.17;100.00
56198;BME280;42700;42.524;12.052;2022-09-02T00:34:44;96690.34;;;19.15;100.00
56198;BME280;42700;42.524;12.052;2022-09-02T00:37:10;96675.78;;;19.11;100.00
56198;BME280;42700;42.524;12.052;2022-09-02T00:39:35;96693.03;;;19.15;100.00
56198;BME280;42700;42.524;12.052;2022-09-02T00:42:01;96677.66;;;19.10;100.00
56198;BME280;42700;42.524;12.052;2022-09-02T00:44:27;96639.09;;;18.99;100.00
56198;BME280;42700;42.524;12.052;2022-09-02T00:46:53;96660.59;;;18.99;100.00
56198;BME280;42700;42.524;12.052;2022-09-02T00:49:20;96716.13;;;19.11;100.00
56198;BME280;42700;42.524;12.052;2022-09-02T00:52:00;96667.63;;;19.01;100.00
56198;BME280;42700;42.524;12.052;2022-09-02T00:54:29;96619.13;;;18.90;100.00
56198;BME280;42700;42.524;12.052;2022-09-02T00:56:55;96616.94;;;18.87;100.00
56198;BME280;42700;42.524;12.052;2022-09-02T01:02:16;96673.22;;;18.94;100.00
56198;BME280;42700;42.524;12.052;2022-09-02T01:04:41;96622.75;;;18.79;100.00
56198;BME280;42700;42.524;12.052;2022-09-02T01:07:10;96659.72;;;18.89;100.00
56198;BME280;42700;42.524;12.052;2022-09-02T01:09:36;96643.28;;;18.85;100.00
56198;BME280;42700;42.524;12.052;2022-09-02T01:12:03;96585.81;;;18.69;100.00
56198;BME280;42700;42.524;12.052;2022-09-02T01:14:28;96623.81;;;18.78;100.00
56198;BME280;42700;42.524;12.052;2022-09-02T01:16:55;96595.78;;;18.69;100.00
56198;BME280;42700;42.524;12.052;2022-09-02T01:19:22;96601.16;;;18.69;100.00
56198;BME280;42700;42.524;12.052;2022-09-02T01:21:53;96585.22;;;18.62;100.00
56198;BME280;42700;42.524;12.052;2022-09-02T01:24:19;96629.13;;;18.73;100.00
56198;BME280;42700;42.524;12.052;2022-09-02T01:26:45;96598.72;;;18.67;100.00
56198;BME280;42700;42.524;12.052;2022-09-02T01:29:11;96549.13;;;18.53;100.00
56198;BME280;42700;42.524;12.052;2022-09-02T01:31:37;96580.66;;;18.62;100.00
56198;BME280;42700;42.524;12.052;2022-09-02T01:34:03;96565.03;;;18.59;100.00
56198;BME280;42700;42.524;12.052;2022-09-02T01:36:31;96455.72;;;18.38;100.00
56198;BME280;42700;42.524;12.052;2022-09-02T01:38:56;96544.03;;;18.56;100.00
56198;BME280;42700;42.524;12.052;2022-09-02T01:41:22;96542.44;;;18.55;100.00
56198;BME280;42700;42.524;12.052;2022-09-02T01:43:47;96501.53;;;18.53;100.00
56198;BME280;42700;42.524;12.052;2022-09-02T01:46:13;96454.72;;;18.44;100.00
56198;BME280;42700;42.524;12.052;2022-09-02T01:48:38;96457.13;;;18.46;100.00
56198;BME280;42700;42.524;12.052;2022-09-02T01:51:04;96352.44;;;18.23;100.00
56198;BME280;42700;42.524;12.052;2022-09-02T01:53:30;96431.28;;;18.39;100.00
56198;BME280;42700;42.524;12.052;2022-09-02T01:55:56;96463.34;;;18.51;100.00
56198;BME280;42700;42.524;12.052;2022-09-02T01:58:21;96377.00;;;18.37;100.00
56198;BME280;42700;42.524;12.052;2022-09-02T02:00:47;96398.53;;;18.42;100.00
56198;BME280;42700;42.524;12.052;2022-09-02T02:03:12;96342.84;;;18.33;100.00
56198;BME280;42700;42.524;12.052;2022-09-02T02:05:38;96311.06;;;18.24;100.00
56198;BME280;42700;42.524;12.052;2022-09-02T02:08:04;96369.22;;;18.41;100.00
56198;BME280;42700;42.524;12.052;2022-09-02T02:10:30;96328.28;;;18.29;100.00
56198;BME280;42700;42.524;12.052;2022-09-02T02:12:55;96340.66;;;18.30;100.00
56198;BME280;42700;42.524;12.052;2022-09-02T02:15:21;96289.56;;;18.19;100.00
56198;BME280;42700;42.524;12.052;2022-09-02T02:17:47;96314.31;;;18.26;100.00
56198;BME280;42700;42.524;12.052;2022-09-02T02:20:14;96284.19;;;18.19;100.00
56198;BME280;42700;42.524;12.052;2022-09-02T02:22:40;96262.66;;;18.14;100.00
56198;BME280;42700;42.524;12.052;2022-09-02T02:25:06;96276.63;;;18.16;100.00
56198;BME280;42700;42.524;12.052;2022-09-02T02:27:32;96283.09;;;18.20;100.00
56198;BME280;42700;42.524;12.052;2022-09-02T02:29:57;96261.25;;;18.06;100.00
56198;BME280;42700;42.524;12.052;2022-09-02T02:32:23;96268.00;;;18.09;100.00
56198;BME280;42700;42.524;12.052;2022-09-02T02:34:50;96241.91;;;18.04;100.00
56198;BME280;42700;42.524;12.052;2022-09-02T02:37:15;96276.56;;;18.06;100.00
56198;BME280;42700;42.524;12.052;2022-09-02T02:39:41;96342.19;;;18.20;100.00
56198;BME280;42700;42.524;12.052;2022-09-02T02:42:07;96297.06;;;18.17;100.00
56198;BME280;42700;42.524;12.052;2022-09-02T02:44:32;96252.44;;;18.11;100.00
56198;BME280;42700;42.524;12.052;2022-09-02T02:46:58;96203.53;;;18.04;100.00
56198;BME280;42700;42.524;12.052;2022-09-02T02:49:24;96253.47;;;18.05;100.00
56198;BME280;42700;42.524;12.052;2022-09-02T02:51:51;96305.66;;;18.14;100.00
56198;BME280;42700;42.524;12.052;2022-09-02T02:54:18;96227.09;;;17.97;100.00
56198;BME280;42700;42.524;12.052;2022-09-02T02:56:44;96231.91;;;17.95;100.00
56198;BME280;42700;42.524;12.052;2022-09-02T02:59:09;96239.94;;;17.89;100.00
56198;BME280;42700;42.524;12.052;2022-09-02T03:01:35;96316.84;;;18.01;100.00
56198;BME280;42700;42.524;12.052;2022-09-02T03:04:00;96280.72;;;17.86;100.00
56198;BME280;42700;42.524;12.052;2022-09-02T03:06:26;96325.38;;;17.93;100.00
56198;BME280;42700;42.524;12.052;2022-09-02T03:08:51;96320.19;;;17.86;100.00
56198;BME280;42700;42.524;12.052;2022-09-02T03:11:18;96334.47;;;17.92;100.00
56198;BME280;42700;42.524;12.052;2022-09-02T03:13:47;96339.22;;;17.84;100.00
56198;BME280;42700;42.524;12.052;2022-09-02T03:16:12;96358.03;;;17.84;100.00
56198;BME280;42700;42.524;12.052;2022-09-02T03:18:38;96372.50;;;17.83;100.00
56198;BME280;42700;42.524;12.052;2022-09-02T03:21:07;96376.53;;;17.81;100.00
56198;BME280;42700;42.524;12.052;2022-09-02T03:23:33;96412.22;;;17.81;100.00
56198;BME280;42700;42.524;12.052;2022-09-02T03:25:58;96398.75;;;17.76;100.00
56198;BME280;42700;42.524;12.052;2022-09-02T03:28:24;96389.88;;;17.76;100.00
56198;BME280;42700;42.524;12.052;2022-09-02T03:30:49;96445.50;;;17.80;100.00
56198;BME280;42700;42.524;12.052;2022-09-02T03:33:15;96462.75;;;17.84;100.00
56198;BME280;42700;42.524;12.052;2022-09-02T03:35:41;96389.06;;;17.75;100.00
56198;BME280;42700;42.524;12.052;2022-09-02T03:38:07;96460.59;;;17.86;100.00
56198;BME280;42700;42.524;12.052;2022-09-02T03:40:33;96410.03;;;17.78;100.00
56198;BME280;42700;42.524;12.052;2022-09-02T03:42:59;96406.31;;;17.79;100.00
56198;BME280;42700;42.524;12.052;2022-09-02T03:45:24;96439.13;;;17.86;100.00
56198;BME280;42700;42.524;12.052;2022-09-02T03:47:50;96458.81;;;17.92;100.00
56198;BME280;42700;42.524;12.052;2022-09-02T03:50:28;96428.38;;;17.86;100.00
56198;BME280;42700;42.524;12.052;2022-09-02T03:52:54;96430.34;;;17.91;100.00
56198;BME280;42700;42.524;12.052;2022-09-02T03:55:20;96398.06;;;17.86;100.00
56198;BME280;42700;42.524;12.052;2022-09-02T03:57:46;96371.44;;;17.84;100.00
56198;BME280;42700;42.524;12.052;2022-09-02T04:00:13;96345.63;;;17.78;100.00
56198;BME280;42700;42.524;12.052;2022-09-02T04:02:39;96276.75;;;17.62;100.00
56198;BME280;42700;42.524;12.052;2022-09-02T04:05:06;96367.09;;;17.78;100.00
56198;BME280;42700;42.524;12.052;2022-09-02T04:07:32;96413.31;;;17.85;100.00
56198;BME280;42700;42.524;12.052;2022-09-02T04:09:58;96354.44;;;17.74;100.00
56198;BME280;42700;42.524;12.052;2022-09-02T04:12:23;96409.53;;;17.81;100.00
56198;BME280;42700;42.524;12.052;2022-09-02T04:14:49;96320.00;;;17.65;100.00
56198;BME280;42700;42.524;12.052;2022-09-02T04:17:14;96365.38;;;17.67;100.00
56198;BME280;42700;42.524;12.052;2022-09-02T04:19:40;96435.84;;;17.79;100.00
56198;BME280;42700;42.524;12.052;2022-09-02T04:22:06;96420.78;;;17.78;100.00
56198;BME280;42700;42.524;12.052;2022-09-02T04:24:32;96458.94;;;17.80;100.00
56198;BME280;42700;42.524;12.052;2022-09-02T04:26:59;96426.66;;;17.75;100.00
56198;BME280;42700;42.524;12.052;2022-09-02T04:29:24;96405.63;;;17.67;100.00
56198;BME280;42700;42.524;12.052;2022-09-02T04:31:50;96439.47;;;17.68;100.00
56198;BME280;42700;42.524;12.052;2022-09-02T04:34:16;96340.19;;;17.46;100.00
56198;BME280;42700;42.524;12.052;2022-09-02T04:36:41;96449.03;;;17.59;100.00
56198;BME280;42700;42.524;12.052;2022-09-02T04:39:07;96410.22;;;17.44;100.00
56198;BME280;42700;42.524;12.052;2022-09-02T04:41:34;96497.03;;;17.55;100.00
56198;BME280;42700;42.524;12.052;2022-09-02T04:44:00;96513.94;;;17.56;100.00
56198;BME280;42700;42.524;12.052;2022-09-02T04:46:26;96551.91;;;17.64;100.00
56198;BME280;42700;42.524;12.052;2022-09-02T04:48:51;96537.66;;;17.64;100.00
56198;BME280;42700;42.524;12.052;2022-09-02T04:51:18;96527.22;;;17.67;100.00
56198;BME280;42700;42.524;12.052;2022-09-02T04:53:45;96598.28;;;17.82;100.00
56198;BME280;42700;42.524;12.052;2022-09-02T04:56:12;96523.06;;;17.77;100.00
56198;BME280;42700;42.524;12.052;2022-09-02T04:58:39;96482.47;;;17.73;100.00
56198;BME280;42700;42.524;12.052;2022-09-02T05:01:05;96511.97;;;17.90;100.00
56198;BME280;42700;42.524;12.052;2022-09-02T05:03:31;96463.88;;;17.88;100.00
56198;BME280;42700;42.524;12.052;2022-09-02T05:05:58;96483.91;;;18.03;100.00
56198;BME280;42700;42.524;12.052;2022-09-02T05:08:24;96365.06;;;17.91;100.00
56198;BME280;42700;42.524;12.052;2022-09-02T05:10:49;96379.16;;;18.03;100.00
56198;BME280;42700;42.524;12.052;2022-09-02T05:13:17;96343.72;;;18.06;100.00
56198;BME280;42700;42.524;12.052;2022-09-02T05:15:44;96336.75;;;18.10;100.00
56198;BME280;42700;42.524;12.052;2022-09-02T05:18:09;96329.25;;;18.12;100.00
56198;BME280;42700;42.524;12.052;2022-09-02T05:20:37;96205.88;;;17.95;100.00
56198;BME280;42700;42.524;12.052;2022-09-02T05:23:03;96359.44;;;18.24;100.00
56198;BME280;42700;42.524;12.052;2022-09-02T05:25:30;96201.38;;;18.06;100.00
56198;BME280;42700;42.524;12.052;2022-09-02T05:27:55;96336.09;;;18.30;100.00
56198;BME280;42700;42.524;12.052;2022-09-02T05:30:21;96323.00;;;18.39;100.00
56198;BME280;42700;42.524;12.052;2022-09-02T05:32:46;96310.59;;;18.33;100.00
56198;BME280;42700;42.524;12.052;2022-09-02T05:35:14;96302.56;;;18.43;100.00
56198;BME280;42700;42.524;12.052;2022-09-02T05:37:39;96255.28;;;18.42;100.00
56198;BME280;42700;42.524;12.052;2022-09-02T05:40:05;96284.38;;;18.55;100.00
56198;BME280;42700;42.524;12.052;2022-09-02T05:42:31;96220.41;;;18.52;100.00
56198;BME280;42700;42.524;12.052;2022-09-02T05:44:56;96211.81;;;18.60;100.00
56198;BME280;42700;42.524;12.052;2022-09-02T05:47:22;96264.00;;;18.75;100.00
56198;BME280;42700;42.524;12.052;2022-09-02T05:49:49;96335.38;;;18.98;100.00
56198;BME280;42700;42.524;12.052;2022-09-02T05:52:14;96258.75;;;18.95;100.00
56198;BME280;42700;42.524;12.052;2022-09-02T05:54:42;96278.66;;;19.10;100.00
56198;BME280;42700;42.524;12.052;2022-09-02T05:57:11;96307.75;;;19.18;100.00
56198;BME280;42700;42.524;12.052;2022-09-02T05:59:38;96315.84;;;19.23;100.00
56198;BME280;42700;42.524;12.052;2022-09-02T06:02:09;96246.41;;;19.25;100.00
56198;BME280;42700;42.524;12.052;2022-09-02T06:04:36;96355.72;;;19.52;100.00
56198;BME280;42700;42.524;12.052;2022-09-02T06:07:02;96333.13;;;19.58;100.00
56198;BME280;42700;42.524;12.052;2022-09-02T06:09:27;96240.50;;;19.49;100.00
56198;BME280;42700;42.524;12.052;2022-09-02T06:11:53;96288.44;;;19.57;100.00
56198;BME280;42700;42.524;12.052;2022-09-02T06:14:19;96343.94;;;19.79;100.00
56198;BME280;42700;42.524;12.052;2022-09-02T06:16:46;96225.19;;;19.80;100.00
56198;BME280;42700;42.524;12.052;2022-09-02T06:19:12;96482.97;;;20.05;100.00
56198;BME280;42700;42.524;12.052;2022-09-02T06:21:38;96364.16;;;20.07;100.00
56198;BME280;42700;42.524;12.052;2022-09-02T06:24:04;96351.50;;;20.28;100.00
56198;BME280;42700;42.524;12.052;2022-09-02T06:26:30;96156.72;;;19.97;100.00
56198;BME280;42700;42.524;12.052;2022-09-02T06:28:55;96220.47;;;20.32;100.00
56198;BME280;42700;42.524;12.052;2022-09-02T06:31:21;96066.34;;;20.25;100.00
56198;BME280;42700;42.524;12.052;2022-09-02T06:33:49;95974.66;;;20.35;100.00
56198;BME280;42700;42.524;12.052;2022-09-02T06:36:15;96143.69;;;20.85;100.00
56198;BME280;42700;42.524;12.052;2022-09-02T06:38:43;95713.00;;;20.56;100.00
56198;BME280;42700;42.524;12.052;2022-09-02T06:41:10;95824.81;;;20.63;100.00
56198;BME280;42700;42.524;12.052;2022-09-02T06:43:36;95764.28;;;20.75;100.00
56198;BME280;42700;42.524;12.052;2022-09-02T06:46:01;95762.72;;;20.93;100.00
56198;BME280;42700;42.524;12.052;2022-09-02T06:48:27;95554.66;;;20.80;100.00
56198;BME280;42700;42.524;12.052;2022-09-02T06:50:53;95427.03;;;20.99;100.00
56198;BME280;42700;42.524;12.052;2022-09-02T06:53:19;95225.41;;;21.05;100.00
56198;BME280;42700;42.524;12.052;2022-09-02T06:55:45;95505.00;;;21.28;100.00
56198;BME280;42700;42.524;12.052;2022-09-02T06:58:10;95088.50;;;21.10;100.00
56198;BME280;42700;42.524;12.052;2022-09-02T07:00:37;94812.03;;;20.99;100.00
56198;BME280;42700;42.524;12.052;2022-09-02T07:03:03;95180.63;;;21.40;100.00
56198;BME280;42700;42.524;12.052;2022-09-02T07:05:56;95013.66;;;21.56;100.00
56198;BME280;42700;42.524;12.052;2022-09-02T07:08:22;94912.72;;;21.92;100.00
56198;BME280;42700;42.524;12.052;2022-09-02T07:10:48;94801.50;;;22.16;100.00
56198;BME280;42700;42.524;12.052;2022-09-02T07:13:13;94631.53;;;22.23;100.00
56198;BME280;42700;42.524;12.052;2022-09-02T07:15:39;94351.59;;;22.31;100.00
56198;BME280;42700;42.524;12.052;2022-09-02T07:18:05;93799.22;;;21.91;100.00
56198;BME280;42700;42.524;12.052;2022-09-02T07:20:30;94008.56;;;22.26;100.00
56198;BME280;42700;42.524;12.052;2022-09-02T07:22:56;93655.00;;;22.24;100.00
56198;BME280;42700;42.524;12.052;2022-09-02T07:25:21;93855.97;;;22.64;100.00
56198;BME280;42700;42.524;12.052;2022-09-02T07:27:47;93909.88;;;23.01;100.00
56198;BME280;42700;42.524;12.052;2022-09-02T07:30:15;93687.63;;;22.99;100.00
56198;BME280;42700;42.524;12.052;2022-09-02T07:32:41;93636.72;;;23.04;100.00
56198;BME280;42700;42.524;12.052;2022-09-02T07:35:07;93257.22;;;23.00;100.00
56198;BME280;42700;42.524;12.052;2022-09-02T07:37:33;92656.59;;;22.64;100.00
56198;BME280;42700;42.524;12.052;2022-09-02T07:40:00;93050.75;;;22.89;100.00
56198;BME280;42700;42.524;12.052;2022-09-02T07:42:26;92423.44;;;22.82;100.00
56198;BME280;42700;42.524;12.052;2022-09-02T07:44:52;92369.41;;;22.89;100.00
56198;BME280;42700;42.524;12.052;2022-09-02T07:47:17;92632.97;;;23.17;100.00
56198;BME280;42700;42.524;12.052;2022-09-02T07:49:42;92349.38;;;23.19;100.00
56198;BME280;42700;42.524;12.052;2022-09-02T07:52:08;91774.38;;;22.73;100.00
56198;BME280;42700;42.524;12.052;2022-09-02T07:54:33;92771.34;;;23.19;100.00
56198;BME280;42700;42.524;12.052;2022-09-02T07:56:59;93019.72;;;23.47;100.00
56198;BME280;42700;42.524;12.052;2022-09-02T07:59:24;92153.03;;;23.36;100.00
56198;BME280;42700;42.524;12.052;2022-09-02T08:01:50;92272.81;;;23.40;100.00
56198;BME280;42700;42.524;12.052;2022-09-02T08:04:16;91502.50;;;23.44;100.00
56198;BME280;42700;42.524;12.052;2022-09-02T08:06:43;92218.50;;;24.08;100.00
56198;BME280;42700;42.524;12.052;2022-09-02T08:09:09;92307.16;;;23.90;100.00
56198;BME280;42700;42.524;12.052;2022-09-02T08:11:36;91930.81;;;23.90;100.00
56198;BME280;42700;42.524;12.052;2022-09-02T08:14:04;91248.28;;;23.40;100.00
56198;BME280;42700;42.524;12.052;2022-09-02T08:16:29;92223.91;;;24.01;100.00
56198;BME280;42700;42.524;12.052;2022-09-02T08:18:55;91985.28;;;24.37;100.00
56198;BME280;42700;42.524;12.052;2022-09-02T08:21:22;91456.75;;;24.04;100.00
56198;BME280;42700;42.524;12.052;2022-09-02T08:23:49;90565.53;;;23.67;100.00
56198;BME280;42700;42.524;12.052;2022-09-02T08:26:15;91340.38;;;24.41;100.00
56198;BME280;42700;42.524;12.052;2022-09-02T08:28:42;91184.75;;;24.62;100.00
56198;BME280;42700;42.524;12.052;2022-09-02T08:31:07;90537.72;;;24.18;100.00
56198;BME280;42700;42.524;12.052;2022-09-02T08:33:33;91423.19;;;24.42;100.00
56198;BME280;42700;42.524;12.052;2022-09-02T08:36:03;90996.75;;;24.39;100.00
56198;BME280;42700;42.524;12.052;2022-09-02T08:38:29;90591.84;;;24.57;100.00
56198;BME280;42700;42.524;12.052;2022-09-02T08:40:55;91256.75;;;24.79;100.00
56198;BME280;42700;42.524;12.052;2022-09-02T08:45:50;90924.50;;;25.33;100.00
56198;BME280;42700;42.524;12.052;2022-09-02T08:48:19;91198.66;;;25.72;100.00
56198;BME280;42700;42.524;12.052;2022-09-02T08:50:46;90618.38;;;25.76;100.00
56198;BME280;42700;42.524;12.052;2022-09-02T08:55:43;90162.06;;;25.83;100.00
56198;BME280;42700;42.524;12.052;2022-09-02T08:58:12;90966.81;;;26.43;100.00
56198;BME280;42700;42.524;12.052;2022-09-02T09:00:40;89919.13;;;26.51;100.00
56198;BME280;42700;42.524;12.052;2022-09-02T09:08:34;90252.84;;;26.80;100.00
56198;BME280;42700;42.524;12.052;2022-09-02T09:11:04;89205.03;;;26.76;100.00
56198;BME280;42700;42.524;12.052;2022-09-02T09:18:31;89990.16;;;27.22;100.00
56198;BME280;42700;42.524;12.052;2022-09-02T09:20:59;86688.06;;;26.17;100.00
56198;BME280;42700;42.524;12.052;2022-09-02T09:23:28;88095.41;;;26.43;100.00
56198;BME280;42700;42.524;12.052;2022-09-02T09:25:56;88167.09;;;26.95;100.00
56198;BME280;42700;42.524;12.052;2022-09-02T09:28:23;88020.84;;;26.93;100.00
56198;BME280;42700;42.524;12.052;2022-09-02T09:30:49;89449.53;;;27.69;100.00
56198;BME280;42700;42.524;12.052;2022-09-02T09:33:15;88197.22;;;27.65;100.00
56198;BME280;42700;42.524;12.052;2022-09-02T09:35:50;87538.25;;;27.80;100.00
56198;BME280;42700;42.524;12.052;2022-09-02T09:38:16;86011.31;;;27.42;100.00
56198;BME280;42700;42.524;12.052;2022-09-02T09:41:08;86155.97;;;27.16;100.00
56198;BME280;42700;42.524;12.052;2022-09-02T09:43:35;86724.34;;;27.99;100.00
56198;BME280;42700;42.524;12.052;2022-09-02T09:46:00;85687.38;;;28.14;100.00
56198;BME280;42700;42.524;12.052;2022-09-02T09:48:48;87857.53;;;28.97;100.00
56198;BME280;42700;42.524;12.052;2022-09-02T09:51:15;87863.19;;;29.55;100.00
56198;BME280;42700;42.524;12.052;2022-09-02T09:53:41;88155.25;;;29.49;100.00
56198;BME280;42700;42.524;12.052;2022-09-02T10:06:24;83701.25;;;28.10;100.00
56198;BME280;42700;42.524;12.052;2022-09-02T10:09:02;87038.31;;;29.04;100.00
56198;BME280;42700;42.524;12.052;2022-09-02T10:11:29;87691.75;;;29.38;100.00
56198;BME280;42700;42.524;12.052;2022-09-02T10:14:05;88340.38;;;29.45;100.00
56198;BME280;42700;42.524;12.052;2022-09-02T10:16:47;89119.34;;;30.27;100.00
56198;BME280;42700;42.524;12.052;2022-09-02T10:19:27;83870.81;;;29.63;100.00
56198;BME280;42700;42.524;12.052;2022-09-02T10:26:52;85334.66;;;30.53;100.00
56198;BME280;42700;42.524;12.052;2022-09-02T10:37:18;91115.97;;;31.92;100.00
56198;BME280;42700;42.524;12.052;2022-09-02T10:47:42;89138.59;;;31.51;100.00
56198;BME280;42700;42.524;12.052;2022-09-02T10:52:43;91512.56;;;32.43;100.00
56198;BME280;42700;42.524;12.052;2022-09-02T11:00:12;86842.38;;;32.07;100.00
56198;BME280;42700;42.524;12.052;2022-09-02T11:05:06;91860.16;;;32.98;100.00
56198;BME280;42700;42.524;12.052;2022-09-02T11:08:07;90651.78;;;33.11;100.00
56198;BME280;42700;42.524;12.052;2022-09-02T11:10:29;92041.81;;;33.61;100.00
56198;BME280;42700;42.524;12.052;2022-09-02T11:13:00;87785.22;;;33.45;100.00
56198;BME280;42700;42.524;12.052;2022-09-02T11:15:44;86077.66;;;33.11;100.00
56198;BME280;42700;42.524;12.052;2022-09-02T11:18:15;86084.56;;;33.12;98.68
56198;BME280;42700;42.524;12.052;2022-09-02T11:24:01;84649.38;;;32.79;100.00
56198;BME280;42700;42.524;12.052;2022-09-02T11:26:28;87904.09;;;33.55;91.81
56198;BME280;42700;42.524;12.052;2022-09-02T11:29:39;87059.19;;;33.73;100.00
56198;BME280;42700;42.524;12.052;2022-09-02T11:31:51;85861.53;;;33.73;88.48
56198;BME280;42700;42.524;12.052;2022-09-02T11:37:00;88689.91;;;34.71;85.95
56198;BME280;42700;42.524;12.052;2022-09-02T11:39:42;86879.34;;;34.25;91.92
56198;BME280;42700;42.524;12.052;2022-09-02T11:42:55;85717.72;;;34.35;91.91
56198;BME280;42700;42.524;12.052;2022-09-02T11:45:12;87191.72;;;34.13;100.00
56198;BME280;42700;42.524;12.052;2022-09-02T11:47:48;80891.41;;;30.72;100.00
56198;BME280;42700;42.524;12.052;2022-09-02T11:55:16;92542.41;;;31.98;100.00
56198;BME280;42700;42.524;12.052;2022-09-02T11:57:51;91219.44;;;32.36;100.00
56198;BME280;42700;42.524;12.052;2022-09-02T12:03:16;88246.03;;;31.27;100.00
56198;BME280;42700;42.524;12.052;2022-09-02T12:08:09;85327.34;;;30.70;100.00
56198;BME280;42700;42.524;12.052;2022-09-02T12:13:10;84800.75;;;29.53;100.00
56198;BME280;42700;42.524;12.052;2022-09-02T12:15:39;88736.56;;;30.25;100.00
56198;BME280;42700;42.524;12.052;2022-09-02T12:18:09;91333.22;;;31.35;100.00
56198;BME280;42700;42.524;12.052;2022-09-02T12:23:00;89453.25;;;29.75;100.00
56198;BME280;42700;42.524;12.052;2022-09-02T12:33:29;89163.75;;;31.93;98.30
56198;BME280;42700;42.524;12.052;2022-09-02T12:35:55;86712.66;;;32.12;92.25
56198;BME280;42700;42.524;12.052;2022-09-02T12:38:24;82918.56;;;29.85;100.00
56198;BME280;42700;42.524;12.052;2022-09-02T12:41:00;87582.91;;;30.92;100.00
56198;BME280;42700;42.524;12.052;2022-09-02T12:43:35;89335.66;;;31.87;100.00
56198;BME280;42700;42.524;12.052;2022-09-02T12:48:48;87613.00;;;32.52;98.70
56198;BME280;42700;42.524;12.052;2022-09-02T12:52:02;84444.72;;;32.24;94.55
56198;BME280;42700;42.524;12.052;2022-09-02T12:54:08;87429.47;;;32.80;94.13
56198;BME280;42700;42.524;12.052;2022-09-02T12:56:33;88109.31;;;33.39;92.49
56198;BME280;42700;42.524;12.052;2022-09-02T12:58:59;84268.41;;;32.31;91.83
56198;BME280;42700;42.524;12.052;2022-09-02T13:01:44;87282.69;;;33.60;97.95
56198;BME280;42700;42.524;12.052;2022-09-02T13:04:16;87140.03;;;34.60;83.70
56198;BME280;42700;42.524;12.052;2022-09-02T13:06:51;89530.81;;;35.75;94.79
56198;BME280;42700;42.524;12.052;2022-09-02T13:12:05;79662.63;;;32.32;82.74
56198;BME280;42700;42.524;12.052;2022-09-02T13:14:45;84108.50;;;32.40;86.14
56198;BME280;42700;42.524;12.052;2022-09-02T13:22:27;84101.38;;;33.29;81.54
56198;BME280;42700;42.524;12.052;2022-09-02T13:25:03;82959.72;;;33.45;79.17
56198;BME280;42700;42.524;12.052;2022-09-02T13:32:33;81885.97;;;32.13;84.48
56198;BME280;42700;42.524;12.052;2022-09-02T13:35:03;81365.28;;;31.79;84.04
56198;BME280;42700;42.524;12.052;2022-09-02T13:39:55;86283.91;;;33.90;80.95
56198;BME280;42700;42.524;12.052;2022-09-02T13:42:22;82803.31;;;33.26;81.30
56198;BME280;42700;42.524;12.052;2022-09-02T13:44:48;79858.59;;;31.81;83.33
56198;BME280;42700;42.524;12.052;2022-09-02T13:47:15;84546.56;;;33.18;82.67
56198;BME280;42700;42.524;12.052;2022-09-02T13:49:42;82396.31;;;32.97;77.61
56198;BME280;42700;42.524;12.052;2022-09-02T13:52:15;80025.56;;;31.73;80.68
56198;BME280;42700;42.524;12.052;2022-09-02T13:54:45;79675.06;;;30.98;84.96
56198;BME280;42700;42.524;12.052;2022-09-02T13:57:15;80613.97;;;30.98;83.88
56198;BME280;42700;42.524;12.052;2022-09-02T13:59:49;83754.47;;;31.53;88.11
56198;BME280;42700;42.524;12.052;2022-09-02T14:02:36;84767.34;;;31.79;83.68
56198;BME280;42700;42.524;12.052;2022-09-02T14:07:30;86550.06;;;33.11;77.13
56198;BME280;42700;42.524;12.052;2022-09-02T14:09:57;86298.59;;;33.83;75.42
56198;BME280;42700;42.524;12.052;2022-09-02T14:12:25;82864.88;;;33.11;78.42
56198;BME280;42700;42.524;12.052;2022-09-02T14:14:51;86417.97;;;34.29;78.69
56198;BME280;42700;42.524;12.052;2022-09-02T14:17:17;86618.50;;;34.51;82.78
56198;BME280;42700;42.524;12.052;2022-09-02T14:19:43;80709.38;;;32.65;77.55
56198;BME280;42700;42.524;12.052;2022-09-02T14:25:13;82068.13;;;33.34;74.46
56198;BME280;42700;42.524;12.052;2022-09-02T14:27:39;80559.91;;;33.02;73.40
56198;BME280;42700;42.524;12.052;2022-09-02T14:30:12;82326.44;;;33.10;76.42
56198;BME280;42700;42.524;12.052;2022-09-02T14:32:37;83946.88;;;34.10;71.94
56198;BME280;42700;42.524;12.052;2022-09-02T14:35:11;86750.16;;;35.14;80.21